Time;durP1;ratioP1;P1;durP2;ratioP2;P2;SDS_P1;SDS_P2;PMS_P1;PMS_P2;Temp;Humidity;BMP_temperature;BMP_pressure;BME280_temperature;BME280_humidity;BME280_pressure;Samples;Min_cycle;Max_cycle;Signal;HPM_P1;HPM_P2
2023/06/03 00:00:41;;;;;;;8.03;4.57;;;;;;;11.43;100.00;97000.03;4981582;28;20209;-69
2023/06/03 00:03:11;;;;;;;5.33;4.60;;;;;;;11.57;100.00;97017.69;4991846;28;20258;-68
2023/06/03 00:05:40;;;;;;;5.83;4.47;;;;;;;11.49;100.00;97025.78;4992710;28;20208;-67
2023/06/03 00:08:07;;;;;;;4.27;3.73;;;;;;;11.43;100.00;97035.34;5009289;28;20227;-67
2023/06/03 00:10:35;;;;;;;5.70;3.83;;;;;;;11.46;100.00;97018.22;4985768;28;20213;-67
2023/06/03 00:13:03;;;;;;;5.23;4.40;;;;;;;11.44;100.00;97022.91;4991402;28;20209;-68
2023/06/03 00:15:31;;;;;;;5.23;4.80;;;;;;;11.36;100.00;97023.84;4985247;28;20319;-68
2023/06/03 00:17:58;;;;;;;5.03;4.27;;;;;;;11.27;100.00;97030.31;4990786;28;20235;-67
2023/06/03 00:20:28;;;;;;;4.70;4.30;;;;;;;11.05;100.00;96995.06;5011831;28;20327;-66
2023/06/03 00:22:56;;;;;;;4.87;4.37;;;;;;;11.10;100.00;97014.69;4991058;28;20322;-67
2023/06/03 00:25:24;;;;;;;4.57;4.17;;;;;;;11.05;100.00;97018.94;5004855;28;20223;-66
2023/06/03 00:27:52;;;;;;;5.27;4.73;;;;;;;11.04;100.00;97022.59;4961762;28;20433;-69
2023/06/03 00:30:19;;;;;;;5.97;4.00;;;;;;;10.99;100.00;97025.84;4986547;28;20300;-68
2023/06/03 00:32:47;;;;;;;5.00;4.50;;;;;;;10.91;100.00;97021.47;4987724;28;23163;-67
2023/06/03 00:35:15;;;;;;;6.37;4.00;;;;;;;10.76;100.00;97002.97;5012772;28;20231;-65
2023/06/03 00:37:44;;;;;;;4.80;4.30;;;;;;;10.83;100.00;97029.56;4984912;28;20251;-68
2023/06/03 00:40:12;;;;;;;5.93;3.90;;;;;;;10.79;100.00;97020.31;4982839;28;20204;-68
2023/06/03 00:42:40;;;;;;;6.03;5.07;;;;;;;10.78;100.00;97024.81;4962572;28;20212;-67
2023/06/03 00:45:08;;;;;;;7.37;4.80;;;;;;;10.73;100.00;97023.72;5007869;28;20303;-67
2023/06/03 00:47:36;;;;;;;7.90;4.47;;;;;;;10.67;100.00;97027.97;4984780;28;20440;-67
2023/06/03 00:50:04;;;;;;;4.90;3.87;;;;;;;10.63;100.00;97022.22;4991072;28;20208;-64
2023/06/03 00:52:32;;;;;;;4.20;3.90;;;;;;;10.60;100.00;97027.06;4978978;28;20748;-65
2023/06/03 00:55:01;;;;;;;4.73;4.20;;;;;;;10.53;100.00;97017.22;5011246;28;20216;-68
2023/06/03 00:57:29;;;;;;;8.73;4.00;;;;;;;10.52;100.00;97022.72;4976733;28;20525;-66
2023/06/03 00:59:57;;;;;;;4.60;4.10;;;;;;;10.49;100.00;97025.75;4997059;28;20211;-68
2023/06/03 01:02:25;;;;;;;4.83;4.00;;;;;;;10.56;100.00;97030.09;4987590;28;20232;-69
2023/06/03 01:04:55;;;;;;;5.47;4.43;;;;;;;10.53;100.00;97032.31;5011863;28;20197;-67
2023/06/03 01:07:29;;;;;;;7.03;4.53;;;;;;;10.23;100.00;96993.47;5005581;28;20311;-67
2023/06/03 01:10:06;;;;;;;4.53;3.97;;;;;;;10.42;100.00;97036.25;4987456;28;20295;-68
2023/06/03 01:12:36;;;;;;;5.80;4.20;;;;;;;10.44;100.00;97038.72;5001906;28;20196;-69
2023/06/03 01:15:07;;;;;;;4.13;3.83;;;;;;;10.37;100.00;97031.47;4961974;28;20319;-67
2023/06/03 01:17:39;;;;;;;7.07;4.33;;;;;;;10.33;100.00;97035.50;4989206;28;20715;-67
2023/06/03 01:20:10;;;;;;;4.50;4.10;;;;;;;10.26;100.00;97034.63;4986094;28;20455;-68
2023/06/03 01:22:41;;;;;;;5.00;4.53;;;;;;;10.26;100.00;97034.63;5005707;28;20727;-68
2023/06/03 01:25:12;;;;;;;5.60;3.90;;;;;;;10.26;100.00;97031.97;4979822;28;20253;-68
2023/06/03 01:27:40;;;;;;;4.03;3.73;;;;;;;10.25;100.00;97032.97;5002278;28;21245;-68
2023/06/03 01:30:10;;;;;;;4.43;4.07;;;;;;;10.32;100.00;97033.06;4964680;28;20220;-69
2023/06/03 01:32:39;;;;;;;5.13;3.90;;;;;;;10.28;100.00;97032.59;4985444;28;20373;-67
2023/06/03 01:35:08;;;;;;;5.80;4.30;;;;;;;10.27;100.00;97030.97;4990286;28;20305;-68
2023/06/03 01:37:36;;;;;;;6.10;4.00;;;;;;;10.17;100.00;97030.44;5004153;28;20319;-67
2023/06/03 01:40:05;;;;;;;5.07;4.37;;;;;;;10.14;100.00;97036.91;4984366;28;20389;-70
2023/06/03 01:42:34;;;;;;;6.27;4.20;;;;;;;10.09;100.00;97028.69;5003788;28;20258;-67
2023/06/03 01:45:03;;;;;;;5.67;4.30;;;;;;;10.05;100.00;97035.38;5008840;28;20224;-67
2023/06/03 01:47:31;;;;;;;4.80;4.40;;;;;;;10.08;100.00;97030.53;4938877;28;20258;-67
2023/06/03 01:49:59;;;;;;;4.80;4.30;;;;;;;10.04;100.00;97034.56;4988443;28;20212;-67
2023/06/03 01:52:27;;;;;;;4.50;4.20;;;;;;;9.97;100.00;97025.69;4999010;28;20297;-68
2023/06/03 01:54:54;;;;;;;4.83;4.43;;;;;;;9.92;100.00;97030.72;4986186;28;20204;-66
2023/06/03 01:57:22;;;;;;;8.23;4.70;;;;;;;9.96;100.00;97032.00;5005511;28;20304;-67
2023/06/03 01:59:52;;;;;;;5.07;4.30;;;;;;;9.90;100.00;97030.09;5007946;28;20807;-69
2023/06/03 02:02:20;;;;;;;4.97;3.93;;;;;;;9.84;100.00;97037.75;4945576;28;21028;-67
2023/06/03 02:04:48;;;;;;;5.47;4.60;;;;;;;9.84;100.00;97037.75;4992148;28;20209;-66
2023/06/03 02:07:16;;;;;;;4.67;4.27;;;;;;;9.76;100.00;97039.66;4994890;28;20576;-65
2023/06/03 02:09:43;;;;;;;6.70;4.73;;;;;;;9.69;100.00;97036.94;5003934;28;21056;-66
2023/06/03 02:12:11;;;;;;;6.47;4.70;;;;;;;9.72;100.00;97041.03;4986762;28;20759;-70
2023/06/03 02:14:38;;;;;;;6.87;4.37;;;;;;;9.67;100.00;97037.13;5001749;28;20572;-66
2023/06/03 02:17:08;;;;;;;5.10;4.63;;;;;;;9.66;100.00;97038.13;5011733;28;20216;-66
2023/06/03 02:19:35;;;;;;;5.17;4.67;;;;;;;9.62;100.00;97036.00;4937941;28;20216;-68
2023/06/03 02:22:03;;;;;;;5.53;4.93;;;;;;;9.59;100.00;97031.91;4983230;28;20248;-67
2023/06/03 02:24:31;;;;;;;4.87;4.40;;;;;;;9.56;100.00;97030.44;4987318;28;20263;-67
2023/06/03 02:27:02;;;;;;;5.00;4.60;;;;;;;9.52;100.00;97031.81;4973947;28;21291;-70
2023/06/03 02:29:32;;;;;;;6.07;5.57;;;;;;;9.53;100.00;97033.44;5007434;28;20208;-68
2023/06/03 02:32:00;;;;;;;7.00;4.90;;;;;;;9.51;100.00;97030.16;5002696;28;20208;-66
2023/06/03 02:34:29;;;;;;;5.63;5.07;;;;;;;9.48;100.00;97032.38;4972766;28;20220;-68
2023/06/03 02:36:57;;;;;;;7.17;4.90;;;;;;;9.50;100.00;97027.72;4984110;28;20259;-68
2023/06/03 02:39:25;;;;;;;5.13;4.63;;;;;;;9.56;100.00;97021.69;4988542;28;20235;-67
2023/06/03 02:41:53;;;;;;;5.63;5.10;;;;;;;9.63;100.00;97030.53;4983083;28;20676;-65
2023/06/03 02:44:20;;;;;;;5.37;4.87;;;;;;;9.62;100.00;97028.06;5004980;28;20216;-68
2023/06/03 02:46:48;;;;;;;9.43;5.00;;;;;;;9.62;100.00;97033.38;5003490;28;20287;-68
2023/06/03 02:49:16;;;;;;;6.13;4.70;;;;;;;9.64;100.00;97028.72;4962279;28;20232;-68
2023/06/03 02:51:45;;;;;;;7.47;5.30;;;;;;;9.42;100.00;97002.16;4968704;28;20238;-67
2023/06/03 02:54:13;;;;;;;5.00;4.57;;;;;;;9.69;100.00;97035.09;4974768;28;20962;-67
2023/06/03 02:56:40;;;;;;;6.17;5.43;;;;;;;9.78;100.00;97013.84;4984756;28;20351;-68
2023/06/03 02:59:08;;;;;;;6.63;4.70;;;;;;;9.92;100.00;97030.72;4980481;28;20220;-68
2023/06/03 03:01:37;;;;;;;5.20;4.80;;;;;;;10.02;100.00;97031.25;5004992;28;20315;-64
2023/06/03 03:04:05;;;;;;;6.80;5.23;;;;;;;10.09;100.00;97028.69;4959577;28;20302;-68
2023/06/03 03:06:36;;;;;;;5.67;5.10;;;;;;;10.17;100.00;97027.78;5004120;28;20200;-67
2023/06/03 03:09:06;;;;;;;6.20;5.30;;;;;;;10.02;100.00;97007.44;4948436;28;20934;-69
2023/06/03 03:11:34;;;;;;;5.30;4.90;;;;;;;10.27;100.00;97044.19;5005784;28;20204;-64
2023/06/03 03:14:02;;;;;;;5.17;4.67;;;;;;;10.18;100.00;97021.47;4959983;28;20559;-67
2023/06/03 03:16:30;;;;;;;7.27;5.37;;;;;;;10.30;100.00;97048.31;4976438;28;20228;-64
2023/06/03 03:18:58;;;;;;;5.27;4.87;;;;;;;10.27;100.00;97041.56;4963070;28;21275;-65
2023/06/03 03:21:25;;;;;;;5.90;5.40;;;;;;;10.22;100.00;97047.38;5005373;28;20200;-65
2023/06/03 03:23:53;;;;;;;6.23;5.23;;;;;;;10.23;100.00;97058.81;4977146;28;20270;-64
2023/06/03 03:26:24;;;;;;;5.40;5.00;;;;;;;10.14;100.00;97050.97;4984655;28;20196;-66
2023/06/03 03:28:53;;;;;;;6.33;5.63;;;;;;;10.19;100.00;97060.19;4957721;28;20414;-65
2023/06/03 03:31:21;;;;;;;6.57;4.83;;;;;;;10.13;100.00;97052.00;5012298;28;20266;-64
2023/06/03 03:33:50;;;;;;;5.20;4.80;;;;;;;10.24;100.00;97049.88;5011116;28;20200;-67
2023/06/03 03:36:22;;;;;;;5.70;5.20;;;;;;;10.17;100.00;97057.72;4961292;28;20227;-67
2023/06/03 03:38:51;;;;;;;5.87;5.37;;;;;;;10.17;100.00;97055.06;4981391;28;20257;-67
2023/06/03 03:41:20;;;;;;;5.97;5.30;;;;;;;10.14;100.00;97050.97;4980775;28;20287;-64
2023/06/03 03:43:51;;;;;;;9.37;5.30;;;;;;;10.20;100.00;97053.88;4982298;28;20694;-67
2023/06/03 03:46:18;;;;;;;6.67;5.63;;;;;;;10.21;100.00;97055.53;5007746;28;20761;-65
2023/06/03 03:48:46;;;;;;;7.80;5.90;;;;;;;10.28;100.00;97059.91;5003596;28;20611;-67
2023/06/03 03:51:14;;;;;;;5.77;5.10;;;;;;;10.32;100.00;97064.84;4928704;28;20307;-67
2023/06/03 03:53:44;;;;;;;5.67;5.27;;;;;;;10.34;100.00;97049.59;5009447;28;20200;-68
2023/06/03 03:56:17;;;;;;;5.77;5.27;;;;;;;10.40;100.00;97054.16;4937588;28;20506;-67
2023/06/03 03:58:46;;;;;;;6.30;5.77;;;;;;;10.50;100.00;97059.97;5004733;28;21228;-66
2023/06/03 04:01:17;;;;;;;5.37;4.90;;;;;;;10.47;100.00;97063.00;4983278;28;20200;-67
2023/06/03 04:03:47;;;;;;;6.17;5.50;;;;;;;10.51;100.00;97058.16;5007681;28;20204;-67
2023/06/03 04:06:28;;;;;;;7.53;5.60;;;;;;;10.50;100.00;97057.31;4940559;28;22961;-68
2023/06/03 04:08:56;;;;;;;6.57;5.63;;;;;;;10.62;100.00;97060.31;5002563;28;23054;-67
2023/06/03 04:11:26;;;;;;;5.73;5.23;;;;;;;10.63;100.00;97048.72;4978711;28;20431;-64
2023/06/03 04:13:55;;;;;;;6.03;5.60;;;;;;;10.67;100.00;97059.75;5003871;28;20201;-70
2023/06/03 04:16:49;;;;;;;5.97;5.37;;;;;;;10.79;100.00;97075.97;4979677;28;20224;-65
2023/06/03 04:19:20;;;;;;;6.23;5.03;;;;;;;10.86;100.00;97076.88;5011422;28;20340;-65
2023/06/03 04:21:48;;;;;;;6.70;5.63;;;;;;;10.99;100.00;97079.66;4963947;28;20690;-67
2023/06/03 04:24:16;;;;;;;5.80;5.30;;;;;;;11.06;100.00;97073.59;5010205;28;20457;-68
2023/06/03 04:26:44;;;;;;;5.90;5.30;;;;;;;11.13;100.00;97075.31;4959593;28;20303;-66
2023/06/03 04:29:12;;;;;;;5.27;4.77;;;;;;;11.09;100.00;97079.34;5000611;28;20485;-65
2023/06/03 04:31:39;;;;;;;6.40;4.83;;;;;;;11.12;100.00;97083.44;4984354;28;20235;-64
2023/06/03 04:34:08;;;;;;;5.70;5.30;;;;;;;11.14;100.00;97079.59;5009962;28;20319;-65
2023/06/03 04:36:36;;;;;;;5.23;4.83;;;;;;;11.22;100.00;97088.44;4963011;28;20577;-65
2023/06/03 04:39:05;;;;;;;5.63;5.13;;;;;;;11.21;100.00;97082.31;5005617;28;20258;-67
2023/06/03 04:41:33;;;;;;;5.30;4.83;;;;;;;11.11;100.00;97077.31;4963193;28;20208;-65
2023/06/03 04:44:01;;;;;;;4.77;4.47;;;;;;;11.15;100.00;97086.53;5005068;28;20940;-66
2023/06/03 04:46:29;;;;;;;5.77;5.27;;;;;;;11.22;100.00;97097.22;4986633;28;20212;-66
2023/06/03 04:48:58;;;;;;;5.70;5.20;;;;;;;11.38;100.00;97087.34;5009262;28;20223;-67
2023/06/03 04:51:28;;;;;;;6.67;5.90;;;;;;;11.59;100.00;97086.47;5008133;28;20196;-69
2023/06/03 04:53:56;;;;;;;5.90;5.40;;;;;;;11.77;100.00;97080.69;4969141;28;20306;-69
2023/06/03 04:56:25;;;;;;;6.07;4.83;;;;;;;11.98;100.00;97086.97;4986846;28;20224;-66
2023/06/03 04:58:55;;;;;;;7.27;6.53;;;;;;;11.77;100.00;97059.47;4978988;28;20231;-67
2023/06/03 05:01:23;;;;;;;5.33;4.83;;;;;;;11.95;100.00;97088.16;5008200;28;20212;-66
2023/06/03 05:03:51;;;;;;;6.60;5.73;;;;;;;11.93;100.00;97089.34;4980132;28;20205;-67
2023/06/03 05:06:19;;;;;;;7.70;5.27;;;;;;;12.00;100.00;97095.53;5012284;28;20287;-66
2023/06/03 05:08:49;;;;;;;6.13;5.53;;;;;;;12.04;100.00;97091.50;4970706;28;20631;-68
2023/06/03 05:11:16;;;;;;;4.93;4.60;;;;;;;12.20;100.00;97097.50;4988174;28;20240;-66
2023/06/03 05:13:45;;;;;;;5.10;4.70;;;;;;;12.41;100.00;97099.25;4982626;28;20201;-69
2023/06/03 05:16:13;;;;;;;5.47;4.97;;;;;;;12.64;100.00;97101.59;5005637;28;20412;-64
2023/06/03 05:18:40;;;;;;;5.40;4.90;;;;;;;12.68;100.00;97102.81;4993496;28;20793;-67
2023/06/03 05:21:08;;;;;;;5.63;5.13;;;;;;;12.88;100.00;97099.41;5009223;28;20735;-67
2023/06/03 05:23:36;;;;;;;5.30;4.80;;;;;;;13.10;100.00;97105.38;4956414;28;20220;-70
2023/06/03 05:26:05;;;;;;;6.03;5.53;;;;;;;13.18;100.00;97104.38;4987174;28;20214;-68
2023/06/03 05:28:32;;;;;;;8.23;5.53;;;;;;;13.34;100.00;97108.50;4985261;28;20387;-66
2023/06/03 05:31:00;;;;;;;6.10;5.50;;;;;;;13.12;100.00;97099.88;5007752;28;20207;-67
2023/06/03 05:33:30;;;;;;;5.80;5.40;;;;;;;13.10;100.00;97099.28;5012177;28;20906;-65
2023/06/03 05:35:57;;;;;;;7.60;5.33;;;;;;;12.97;100.00;97098.19;4983911;28;20216;-67
2023/06/03 05:38:27;;;;;;;6.10;5.50;;;;;;;13.17;100.00;97100.91;4964880;28;20510;-68
2023/06/03 05:40:54;;;;;;;6.73;5.87;;;;;;;13.30;100.00;97094.78;5006713;28;20204;-70
2023/06/03 05:43:24;;;;;;;6.33;5.73;;;;;;;13.52;100.00;97093.78;4975909;28;20754;-67
2023/06/03 05:45:51;;;;;;;6.10;5.53;;;;;;;13.48;100.00;97095.22;5006773;28;20298;-68
2023/06/03 05:48:19;;;;;;;7.13;6.27;;;;;;;13.56;100.00;97089.69;5008934;28;20243;-65
2023/06/03 05:50:51;;;;;;;6.13;5.30;;;;;;;13.62;100.00;97090.72;4990927;28;20302;-69
2023/06/03 05:53:20;;;;;;;7.70;5.37;;;;;;;13.70;100.00;97085.19;5005391;28;20526;-69
2023/06/03 05:55:48;;;;;;;7.40;5.77;;;;;;;13.62;100.00;97091.53;4962472;28;20298;-68
2023/06/03 05:58:15;;;;;;;6.10;5.60;;;;;;;13.65;100.00;97079.66;4985787;28;20436;-63
2023/06/03 06:00:44;;;;;;;6.40;5.80;;;;;;;13.85;100.00;97098.28;4983648;28;20278;-66
2023/06/03 06:03:13;;;;;;;6.03;5.53;;;;;;;13.97;100.00;97085.94;5005973;28;20452;-66
2023/06/03 06:05:41;;;;;;;6.00;5.50;;;;;;;14.11;100.00;97072.63;4988053;28;21100;-68
2023/06/03 06:08:08;;;;;;;5.80;5.27;;;;;;;14.16;100.00;97083.47;5006820;28;20390;-65
2023/06/03 06:10:36;;;;;;;6.97;5.70;;;;;;;14.27;100.00;97085.47;4965690;28;20444;-66
2023/06/03 06:13:04;;;;;;;7.33;5.67;;;;;;;14.08;100.00;97065.06;4953470;28;20231;-70
2023/06/03 06:15:31;;;;;;;6.17;5.57;;;;;;;14.26;100.00;97093.69;4982988;28;20311;-67
2023/06/03 06:18:00;;;;;;;7.77;5.70;;;;;;;14.30;100.00;97087.72;5006453;28;20235;-69
2023/06/03 06:20:28;;;;;;;6.27;5.77;;;;;;;14.33;100.00;97092.63;4985210;28;20205;-66
2023/06/03 06:22:56;;;;;;;6.53;5.93;;;;;;;14.44;100.00;97083.16;4982957;28;20224;-69
2023/06/03 06:25:24;;;;;;;6.10;5.63;;;;;;;14.65;100.00;97089.22;5005937;28;20425;-67
2023/06/03 06:27:51;;;;;;;6.47;5.77;;;;;;;14.56;100.00;97062.00;4942464;28;20231;-67
2023/06/03 06:30:21;;;;;;;6.37;5.73;;;;;;;14.89;100.00;97087.69;4982243;28;20226;-66
2023/06/03 06:32:49;;;;;;;6.57;6.10;;;;;;;14.97;100.00;97088.47;5010083;28;20253;-68
2023/06/03 06:35:19;;;;;;;6.10;5.47;;;;;;;14.91;100.00;97090.13;5007140;28;20195;-65
2023/06/03 06:37:48;;;;;;;6.50;6.00;;;;;;;14.85;100.00;97086.50;4983925;28;20229;-69
2023/06/03 06:40:19;;;;;;;6.17;5.53;;;;;;;15.20;100.00;97093.25;5007033;28;20196;-66
2023/06/03 06:42:47;;;;;;;5.40;5.00;;;;;;;15.38;100.00;97089.03;4960373;28;20223;-69
2023/06/03 06:45:17;;;;;;;8.33;6.07;;;;;;;15.31;100.00;97094.41;4958741;28;20824;-67
2023/06/03 06:47:44;;;;;;;7.07;6.37;;;;;;;15.28;100.00;97092.97;5009011;28;20311;-70
2023/06/03 06:50:32;;;;;;;5.57;5.20;;;;;;;15.43;100.00;97094.53;5010578;28;21732;-67
2023/06/03 06:53:01;;;;;;;6.60;5.80;;;;;;;15.43;100.00;97094.53;4978369;28;20307;-67
2023/06/03 06:55:39;;;;;;;5.97;5.37;;;;;;;15.49;100.00;97066.97;5004761;28;20323;-65
2023/06/03 06:58:08;;;;;;;13.27;5.77;;;;;;;15.86;100.00;97093.75;4955841;28;20220;-67
2023/06/03 07:00:36;;;;;;;7.57;6.83;;;;;;;15.89;100.00;97089.84;4985280;28;20616;-66
2023/06/03 07:03:06;;;;;;;6.53;5.87;;;;;;;15.82;100.00;97086.38;4982549;28;20521;-66
2023/06/03 07:05:35;;;;;;;6.53;5.93;;;;;;;15.84;100.00;97084.31;5007624;28;20200;-68
2023/06/03 07:08:03;;;;;;;6.57;6.07;;;;;;;15.82;100.00;97095.22;4985433;28;20478;-69
2023/06/03 07:10:30;;;;;;;6.53;5.93;;;;;;;15.88;100.00;97094.38;5009952;28;20254;-67
2023/06/03 07:12:58;;;;;;;6.80;6.07;;;;;;;15.82;100.00;97065.84;4965917;28;20573;-67
2023/06/03 07:15:26;;;;;;;7.13;6.53;;;;;;;16.00;100.00;97082.97;4982672;28;20619;-64
2023/06/03 07:17:55;;;;;;;6.63;5.63;;;;;;;16.14;100.00;97095.16;4986290;28;20325;-69
2023/06/03 07:20:30;;;;;;;7.37;5.53;;;;;;;16.08;100.00;97087.19;5010135;28;20207;-66
2023/06/03 07:22:59;;;;;;;7.50;5.97;;;;;;;16.10;100.00;97093.97;4999374;28;20741;-66
2023/06/03 07:25:33;;;;;;;5.93;5.30;;;;;;;16.20;100.00;97101.44;4982507;28;20303;-67
2023/06/03 07:28:02;;;;;;;6.80;6.10;;;;;;;16.40;100.00;97095.09;4962490;28;21525;-68
2023/06/03 07:30:30;;;;;;;7.57;6.17;;;;;;;16.53;100.00;97092.25;4955816;28;20299;-67
2023/06/03 07:32:59;;;;;;;6.63;5.87;;;;;;;16.74;100.00;97096.28;4982859;28;20263;-66
2023/06/03 07:35:27;;;;;;;6.40;5.80;;;;;;;16.81;100.00;97090.03;4991714;28;20262;-65
2023/06/03 07:37:56;;;;;;;6.97;6.00;;;;;;;16.81;100.00;97093.53;5008049;28;20331;-66
2023/06/03 07:40:31;;;;;;;6.80;6.20;;;;;;;16.68;100.00;97099.88;4982748;28;20307;-68
2023/06/03 07:42:59;;;;;;;6.50;5.83;;;;;;;16.64;100.00;97101.38;5001783;28;20303;-70
2023/06/03 07:45:27;;;;;;;5.93;5.50;;;;;;;16.75;100.00;97103.28;4939542;28;20414;-66
2023/06/03 07:47:57;;;;;;;8.93;5.93;;;;;;;16.97;100.00;97102.81;4990716;28;20243;-68
2023/06/03 07:50:26;;;;;;;6.40;5.90;;;;;;;17.18;100.00;97093.47;4989167;28;20247;-68
2023/06/03 07:52:59;;;;;;;8.53;6.00;;;;;;;17.33;97.26;97095.72;5004545;28;20288;-63
2023/06/03 07:55:34;;;;;;;7.87;6.03;;;;;;;17.18;97.41;97096.16;4981509;28;20391;-68
2023/06/03 07:58:02;;;;;;;6.93;6.33;;;;;;;17.24;95.92;97106.97;5000314;28;20226;-67
2023/06/03 08:00:30;;;;;;;7.67;5.80;;;;;;;17.39;97.18;97106.56;4960854;28;20311;-68
2023/06/03 08:02:57;;;;;;;6.73;6.13;;;;;;;17.79;100.00;97101.34;4964354;28;20730;-65
2023/06/03 08:05:32;;;;;;;6.20;5.60;;;;;;;17.92;94.60;97104.88;4992027;28;20337;-67
2023/06/03 08:08:00;;;;;;;6.13;5.70;;;;;;;18.10;93.50;97103.13;5001160;28;20318;-65
2023/06/03 08:10:29;;;;;;;6.50;5.90;;;;;;;18.25;90.51;97106.16;5005927;28;20975;-66
2023/06/03 08:12:56;;;;;;;7.33;6.73;;;;;;;18.35;89.41;97101.00;4983672;28;20209;-65
2023/06/03 08:15:27;;;;;;;6.80;6.10;;;;;;;18.46;85.75;97094.00;4954700;28;20236;-67
2023/06/03 08:17:56;;;;;;;6.47;5.87;;;;;;;18.39;82.10;97100.53;4994170;28;20241;-64
2023/06/03 08:20:24;;;;;;;6.47;5.87;;;;;;;18.15;83.46;97104.06;4967225;28;20777;-66
2023/06/03 08:22:52;;;;;;;5.87;5.33;;;;;;;18.04;80.90;97100.34;5010878;28;20220;-68
2023/06/03 08:25:20;;;;;;;7.37;6.20;;;;;;;17.98;85.41;97103.09;5001252;28;20255;-68
2023/06/03 08:27:50;;;;;;;6.00;5.43;;;;;;;18.16;86.73;97104.88;4989620;28;20228;-67
2023/06/03 08:30:18;;;;;;;6.80;6.10;;;;;;;18.35;84.37;97101.00;4958661;28;20208;-67
2023/06/03 08:32:46;;;;;;;9.63;6.00;;;;;;;18.41;86.59;97104.63;4988315;28;20212;-67
2023/06/03 08:35:15;;;;;;;6.20;5.70;;;;;;;18.34;89.25;97095.84;4978189;28;20235;-66
2023/06/03 08:37:43;;;;;;;6.73;5.30;;;;;;;18.50;86.90;97097.81;5011685;28;20235;-67
2023/06/03 08:40:13;;;;;;;6.03;5.57;;;;;;;18.77;87.00;97065.09;5006032;28;20216;-69
2023/06/03 08:42:42;;;;;;;5.97;5.53;;;;;;;19.37;85.68;97097.84;4985621;28;20390;-67
2023/06/03 08:45:12;;;;;;;6.00;5.50;;;;;;;19.13;77.31;97104.38;4990808;28;20315;-66
2023/06/03 08:48:04;;;;;;;7.13;5.60;;;;;;;19.03;77.64;97091.59;4982189;28;20271;-66
2023/06/03 08:50:33;;;;;;;5.97;5.53;;;;;;;18.91;78.12;97094.31;4991861;28;21394;-64
2023/06/03 08:53:08;;;;;;;5.40;5.00;;;;;;;18.88;84.03;97071.44;5011436;28;20292;-66
2023/06/03 08:55:38;;;;;;;5.83;5.30;;;;;;;19.32;82.53;97099.59;5007789;28;20212;-65
2023/06/03 08:58:10;;;;;;;5.60;5.10;;;;;;;19.58;72.96;97100.88;4985627;28;20231;-67
2023/06/03 09:00:40;;;;;;;5.80;5.40;;;;;;;19.66;76.85;97100.44;5010086;28;20863;-66
2023/06/03 09:03:08;;;;;;;5.63;5.23;;;;;;;19.44;75.50;97104.91;4963960;28;20262;-67
2023/06/03 09:05:36;;;;;;;6.23;5.63;;;;;;;19.48;78.39;97101.50;5002361;28;20212;-66
2023/06/03 09:08:04;;;;;;;5.20;4.80;;;;;;;19.79;72.49;97098.47;4987169;28;20247;-69
2023/06/03 09:10:32;;;;;;;7.67;4.97;;;;;;;20.28;68.61;97097.06;5009578;28;20208;-68
2023/06/03 09:13:03;;;;;;;5.90;5.40;;;;;;;20.06;66.42;97095.94;5009958;28;20212;-69
2023/06/03 09:15:31;;;;;;;6.17;5.67;;;;;;;20.11;66.06;97097.91;4986882;28;20216;-69
2023/06/03 09:18:00;;;;;;;5.27;4.53;;;;;;;20.10;63.00;97096.28;4965483;28;20243;-64
2023/06/03 09:20:27;;;;;;;4.63;4.23;;;;;;;19.92;65.00;97084.75;5000039;28;20953;-66
2023/06/03 09:22:56;;;;;;;5.30;4.83;;;;;;;20.03;64.93;97096.44;4985783;28;20295;-67
2023/06/03 09:25:24;;;;;;;4.90;4.50;;;;;;;20.18;58.73;97090.47;5011117;28;20889;-66
2023/06/03 09:27:52;;;;;;;5.10;4.70;;;;;;;20.45;60.23;97088.91;5011661;28;20265;-69
2023/06/03 09:30:19;;;;;;;5.23;4.73;;;;;;;20.29;61.50;97087.94;4980880;28;20280;-67
2023/06/03 09:32:47;;;;;;;5.17;4.80;;;;;;;20.08;61.35;97093.03;4968356;28;20212;-67
2023/06/03 09:35:16;;;;;;;6.13;5.53;;;;;;;20.08;62.22;97084.97;4985149;28;20232;-69
2023/06/03 09:37:58;;;;;;;5.27;4.00;;;;;;;20.29;61.34;97093.31;5009233;28;20244;-67
2023/06/03 09:40:27;;;;;;;4.90;4.40;;;;;;;20.36;57.92;97093.94;4984152;28;21042;-66
2023/06/03 09:42:55;;;;;;;5.57;4.53;;;;;;;20.44;58.08;97090.81;5003442;28;20295;-68
2023/06/03 09:45:26;;;;;;;5.13;4.63;;;;;;;20.66;58.73;97088.09;4978665;28;20696;-69
2023/06/03 09:47:54;;;;;;;6.03;4.53;;;;;;;20.90;56.88;97082.47;4968505;28;20234;-69
2023/06/03 09:50:24;;;;;;;4.93;4.53;;;;;;;21.44;57.92;97088.09;4986773;28;20295;-67
2023/06/03 09:52:52;;;;;;;5.90;4.00;;;;;;;21.63;53.28;97093.91;5011155;28;20825;-66
2023/06/03 09:55:22;;;;;;;4.87;4.50;;;;;;;21.58;54.70;97086.59;4977968;28;20809;-66
2023/06/03 09:58:01;;;;;;;5.40;4.87;;;;;;;21.39;53.44;97092.34;5008144;28;20254;-67
2023/06/03 10:00:31;;;;;;;4.73;4.33;;;;;;;21.64;55.09;97093.66;4977112;28;20935;-67
2023/06/03 10:03:09;;;;;;;5.07;4.57;;;;;;;22.06;52.01;97097.47;4968434;28;20761;-67
2023/06/03 10:05:38;;;;;;;4.47;4.07;;;;;;;21.55;53.01;97093.28;5004853;28;20236;-68
2023/06/03 10:08:06;;;;;;;6.00;4.00;;;;;;;21.99;52.66;97088.81;5007389;28;20224;-69
2023/06/03 10:10:35;;;;;;;4.53;4.13;;;;;;;22.10;51.90;97098.56;4984248;28;20566;-66
2023/06/03 10:13:21;;;;;;;7.00;4.33;;;;;;;22.16;56.09;97090.50;5008908;28;20212;-68
2023/06/03 10:15:50;;;;;;;6.97;4.60;;;;;;;22.22;50.13;97094.84;5004318;28;20610;-65
2023/06/03 10:18:17;;;;;;;7.47;4.77;;;;;;;21.94;51.20;97065.31;4936016;28;20423;-68
2023/06/03 10:20:47;;;;;;;4.43;4.03;;;;;;;22.39;53.81;97090.09;4990178;28;20278;-67
2023/06/03 10:23:14;;;;;;;4.63;4.23;;;;;;;22.35;51.94;97093.56;5002993;28;20258;-67
2023/06/03 10:25:44;;;;;;;5.07;4.57;;;;;;;22.38;51.51;97091.16;5007352;28;20222;-68
2023/06/03 10:28:12;;;;;;;5.70;4.47;;;;;;;22.62;50.84;97082.63;4986747;28;20243;-68
2023/06/03 10:30:40;;;;;;;6.27;4.93;;;;;;;22.53;51.74;97079.63;5004240;28;20205;-67
2023/06/03 10:33:09;;;;;;;4.73;4.33;;;;;;;22.62;48.62;97047.53;4972569;28;20204;-68
2023/06/03 10:35:37;;;;;;;6.23;4.13;;;;;;;22.92;50.13;97073.00;4979397;28;20525;-67
2023/06/03 10:38:10;;;;;;;4.80;4.03;;;;;;;22.92;49.38;97078.41;5009248;28;20251;-67
2023/06/03 10:40:37;;;;;;;5.00;4.00;;;;;;;22.74;47.73;97071.63;5001793;28;20833;-66
2023/06/03 10:43:05;;;;;;;4.10;3.80;;;;;;;22.39;48.57;97078.47;4985245;28;20204;-69
2023/06/03 10:45:33;;;;;;;4.90;4.33;;;;;;;22.44;48.74;97061.50;4999934;28;20405;-67
2023/06/03 10:48:04;;;;;;;5.93;4.20;;;;;;;22.25;48.41;97072.75;5012008;28;20319;-69
2023/06/03 10:50:43;;;;;;;5.40;4.47;;;;;;;21.45;50.25;97084.34;4952943;28;20306;-66
2023/06/03 10:53:19;;;;;;;4.33;4.03;;;;;;;21.20;50.62;97077.66;4986314;28;20704;-67
2023/06/03 10:56:03;;;;;;;6.87;4.67;;;;;;;21.06;50.90;97074.56;5003400;28;20295;-69
2023/06/03 10:58:30;;;;;;;4.90;4.50;;;;;;;21.43;50.48;97083.78;4983343;28;20247;-67
2023/06/03 11:00:59;;;;;;;4.80;4.20;;;;;;;21.58;52.91;97073.13;5007936;28;20658;-66
2023/06/03 11:03:27;;;;;;;4.77;4.30;;;;;;;22.37;51.44;97076.06;4983856;28;20301;-66
2023/06/03 11:06:33;;;;;;;4.93;4.10;;;;;;;23.00;49.48;97071.69;4970595;28;20216;-66
2023/06/03 11:09:05;;;;;;;4.60;4.17;;;;;;;22.82;49.20;97071.09;4985166;28;20263;-68
2023/06/03 11:12:04;;;;;;;6.13;4.60;;;;;;;23.17;49.31;97066.03;5003112;28;20768;-69
2023/06/03 11:14:51;;;;;;;4.43;4.00;;;;;;;23.28;46.96;97066.88;4977054;28;20933;-68
2023/06/03 11:17:19;;;;;;;5.07;4.63;;;;;;;23.24;47.08;97063.91;5006143;28;20352;-67
2023/06/03 11:19:50;;;;;;;7.33;4.33;;;;;;;23.63;49.38;97067.94;4962566;28;20423;-66
2023/06/03 11:22:45;;;;;;;4.17;3.87;;;;;;;23.68;47.94;97059.84;5005611;28;20220;-69
2023/06/03 11:25:38;;;;;;;4.53;4.13;;;;;;;23.38;45.66;97060.66;4999160;28;20208;-69
2023/06/03 11:28:36;;;;;;;3.93;3.63;;;;;;;23.77;46.45;97070.13;4982000;28;20228;-67
2023/06/03 11:31:05;;;;;;;5.40;4.07;;;;;;;23.46;43.63;97073.63;4986431;28;20201;-69
2023/06/03 11:33:34;;;;;;;6.10;3.70;;;;;;;22.88;45.63;97065.69;5011352;28;20310;-68
2023/06/03 11:36:39;;;;;;;4.63;4.27;;;;;;;22.92;46.62;97070.31;4961918;28;20319;-65
2023/06/03 11:39:07;;;;;;;4.63;4.33;;;;;;;23.17;46.49;97065.22;5001355;28;20289;-69
2023/06/03 11:42:09;;;;;;;4.77;4.37;;;;;;;23.37;46.25;97056.34;4974448;28;20403;-66